PWSweather.com
Personal Weather Stations
Station Observations
WH6KOWX
Next To Mccormick Park, St Helens, OR 97051-2144

Next To Mccormick ParkSt Helens, OR 97051-2144

Lat: 45.85439, Lon: -122.81898

Elevation: 79

Station Type: DAVIS Vantage Pro2 PLUS (6163)

http://www.wh6ko.net/wxhome.html

Latest ConditionsUpdated 7:40:10 PM PDT Friday, Aug 26, 2016
Currently Today's Max Today's Min Today's Average
Temperature 85.8°F29.9°C 96.8°F36.0°C 59.8°F15.4°C 78.3°F25.7°C
Dew Point 49.0°F9.4°C 55.9°F13.3°C 42.0°F5.6°C 49.8°F9.9°C
Winds 1.0 mph WNW1.6 kmh WNW 7.0 mph NNW11.3 kmh NNW - 1.6 mph 2.6 kmh
Wind Gusts 3.0 mph4.8 kmh 11.0 mph17.7 kmh - -
Humidity 28% 71% 16% 42%
Pressure 29.73 in1006.8 mb 29.88 in1011.9 mb 29.73 in1006.8 mb -
Hour Temp Dew Point Humidity Winds Wind Gusts Pressure Precip Precip Rate Daily Precip Total
07:40 PM 85.8°F29.9°C 49.0°F9.4°C 28% 1.0 mph WNW1.6 kmh WNW 3.0 mph4.8 kmh 29.73 in1006.8 mb 0.00 in0.0 mm 0.00 in0.0 mm 0.00 in0.0 mm
07:20 PM 87.5°F30.8°C 47.4°F8.6°C 25% Calm Calm 5.0 mph8.0 kmh 29.73 in1006.8 mb 0.00 in0.0 mm 0.00 in0.0 mm 0.00 in0.0 mm
07:00 PM 89.5°F31.9°C 46.9°F8.3°C 23% Calm Calm 4.0 mph6.4 kmh 29.73 in1006.8 mb 0.00 in0.0 mm 0.00 in0.0 mm 0.00 in0.0 mm
06:40 PM 91.3°F32.9°C 44.7°F7.1°C 20% 1.0 mph ENE1.6 kmh ENE 6.0 mph9.7 kmh 29.73 in1006.8 mb 0.00 in0.0 mm 0.00 in0.0 mm 0.00 in0.0 mm
06:20 PM 92.4°F33.6°C 42.8°F6.0°C 18% 7.0 mph NNW11.3 kmh NNW 11.0 mph17.7 kmh 29.74 in1007.1 mb 0.00 in0.0 mm 0.00 in0.0 mm 0.00 in0.0 mm
06:00 PM 93.3°F34.1°C 43.5°F6.4°C 18% 1.0 mph N1.6 kmh N 11.0 mph17.7 kmh 29.74 in1007.1 mb 0.00 in0.0 mm 0.00 in0.0 mm 0.00 in0.0 mm
05:40 PM 93.6°F34.2°C 45.2°F7.3°C 19% 3.0 mph NE4.8 kmh NE 8.0 mph12.9 kmh 29.75 in1007.5 mb 0.00 in0.0 mm 0.00 in0.0 mm 0.00 in0.0 mm
05:20 PM 92.7°F33.7°C 44.5°F6.9°C 19% Calm Calm 7.0 mph11.3 kmh 29.75 in1007.5 mb 0.00 in0.0 mm 0.00 in0.0 mm 0.00 in0.0 mm
05:00 PM 94.5°F34.7°C 43.0°F6.1°C 17% 1.0 mph NE1.6 kmh NE 2.0 mph3.2 kmh 29.75 in1007.5 mb 0.00 in0.0 mm 0.00 in0.0 mm 0.00 in0.0 mm
04:40 PM 95.8°F35.4°C 44.0°F6.7°C 17% 2.0 mph ENE3.2 kmh ENE 6.0 mph9.7 kmh 29.76 in1007.8 mb 0.00 in0.0 mm 0.00 in0.0 mm 0.00 in0.0 mm
04:20 PM 93.9°F34.4°C 49.3°F9.6°C 22% Calm Calm 4.0 mph6.4 kmh 29.76 in1007.8 mb 0.00 in0.0 mm 0.00 in0.0 mm 0.00 in0.0 mm
04:00 PM 94.9°F34.9°C 47.6°F8.7°C 20% 1.0 mph ENE1.6 kmh ENE 2.0 mph3.2 kmh 29.77 in1008.1 mb 0.00 in0.0 mm 0.00 in0.0 mm 0.00 in0.0 mm
03:40 PM 96.8°F36.0°C 43.3°F6.3°C 16% 1.0 mph ENE1.6 kmh ENE 4.0 mph6.4 kmh 29.77 in1008.1 mb 0.00 in0.0 mm 0.00 in0.0 mm 0.00 in0.0 mm
03:20 PM 95.6°F35.3°C 46.8°F8.2°C 19% 1.0 mph NE1.6 kmh NE 5.0 mph8.0 kmh 29.78 in1008.5 mb 0.00 in0.0 mm 0.00 in0.0 mm 0.00 in0.0 mm
03:00 PM 95.2°F35.1°C 42.0°F5.6°C 16% 1.0 mph SE1.6 kmh SE 2.0 mph3.2 kmh 29.79 in1008.8 mb 0.00 in0.0 mm 0.00 in0.0 mm 0.00 in0.0 mm
02:40 PM 96.0°F35.6°C 42.6°F5.9°C 16% 1.0 mph NE1.6 kmh NE 4.0 mph6.4 kmh 29.80 in1009.1 mb 0.00 in0.0 mm 0.00 in0.0 mm 0.00 in0.0 mm
02:20 PM 94.8°F34.9°C 46.2°F7.9°C 19% 5.0 mph ENE8.0 kmh ENE 6.0 mph9.7 kmh 29.80 in1009.1 mb 0.00 in0.0 mm 0.00 in0.0 mm 0.00 in0.0 mm
02:00 PM 93.7°F34.3°C 45.3°F7.4°C 19% 6.0 mph NE9.7 kmh NE 6.0 mph9.7 kmh 29.81 in1009.5 mb 0.00 in0.0 mm 0.00 in0.0 mm 0.00 in0.0 mm
01:40 PM 92.8°F33.8°C 48.4°F9.1°C 22% 4.0 mph ENE6.4 kmh ENE 5.0 mph8.0 kmh 29.82 in1009.8 mb 0.00 in0.0 mm 0.00 in0.0 mm 0.00 in0.0 mm
01:20 PM 91.5°F33.1°C 53.8°F12.1°C 28% 4.0 mph ENE6.4 kmh ENE 6.0 mph9.7 kmh 29.82 in1009.8 mb 0.00 in0.0 mm 0.00 in0.0 mm 0.00 in0.0 mm
01:00 PM 89.6°F32.0°C 55.9°F13.3°C 32% 2.0 mph E3.2 kmh E 2.0 mph3.2 kmh 29.82 in1009.8 mb 0.00 in0.0 mm 0.00 in0.0 mm 0.00 in0.0 mm
12:40 PM 88.1°F31.2°C 52.8°F11.6°C 30% 6.0 mph NE9.7 kmh NE 7.0 mph11.3 kmh 29.83 in1010.2 mb 0.00 in0.0 mm 0.00 in0.0 mm 0.00 in0.0 mm
12:20 PM 86.2°F30.1°C 52.9°F11.6°C 32% 2.0 mph E3.2 kmh E 6.0 mph9.7 kmh 29.83 in1010.2 mb 0.00 in0.0 mm 0.00 in0.0 mm 0.00 in0.0 mm
12:00 PM 84.7°F29.3°C 54.1°F12.3°C 35% 3.0 mph E4.8 kmh E 4.0 mph6.4 kmh 29.84 in1010.5 mb 0.00 in0.0 mm 0.00 in0.0 mm 0.00 in0.0 mm
11:40 AM 82.3°F27.9°C 54.9°F12.7°C 39% Calm Calm 5.0 mph8.0 kmh 29.85 in1010.8 mb 0.00 in0.0 mm 0.00 in0.0 mm 0.00 in0.0 mm
11:20 AM 81.2°F27.3°C 53.9°F12.2°C 39% 3.0 mph NE4.8 kmh NE 7.0 mph11.3 kmh 29.85 in1010.8 mb 0.00 in0.0 mm 0.00 in0.0 mm 0.00 in0.0 mm
11:00 AM 79.3°F26.3°C 54.2°F12.3°C 42% 3.0 mph NE4.8 kmh NE 4.0 mph6.4 kmh 29.85 in1010.8 mb 0.00 in0.0 mm 0.00 in0.0 mm 0.00 in0.0 mm
10:40 AM 78.5°F25.8°C 54.8°F12.7°C 44% 4.0 mph E6.4 kmh E 6.0 mph9.7 kmh 29.86 in1011.2 mb 0.00 in0.0 mm 0.00 in0.0 mm 0.00 in0.0 mm
10:20 AM 75.4°F24.1°C 53.8°F12.1°C 47% Calm Calm 5.0 mph8.0 kmh 29.86 in1011.2 mb 0.00 in0.0 mm 0.00 in0.0 mm 0.00 in0.0 mm
10:00 AM 73.8°F23.2°C 53.5°F11.9°C 49% 2.0 mph ENE3.2 kmh ENE 5.0 mph8.0 kmh 29.86 in1011.2 mb 0.00 in0.0 mm 0.00 in0.0 mm 0.00 in0.0 mm
09:40 AM 72.6°F22.6°C 52.9°F11.6°C 50% 3.0 mph E4.8 kmh E 5.0 mph8.0 kmh 29.86 in1011.2 mb 0.00 in0.0 mm 0.00 in0.0 mm 0.00 in0.0 mm
09:20 AM 71.9°F22.2°C 51.7°F10.9°C 49% 2.0 mph ENE3.2 kmh ENE 5.0 mph8.0 kmh 29.87 in1011.5 mb 0.00 in0.0 mm 0.00 in0.0 mm 0.00 in0.0 mm
09:00 AM 70.5°F21.4°C 51.5°F10.8°C 51% 3.0 mph ENE4.8 kmh ENE 4.0 mph6.4 kmh 29.88 in1011.9 mb 0.00 in0.0 mm 0.00 in0.0 mm 0.00 in0.0 mm
08:40 AM 69.2°F20.7°C 52.4°F11.3°C 55% 5.0 mph NE8.0 kmh NE 6.0 mph9.7 kmh 29.88 in1011.9 mb 0.00 in0.0 mm 0.00 in0.0 mm 0.00 in0.0 mm
08:20 AM 67.6°F19.8°C 52.8°F11.6°C 59% 4.0 mph E6.4 kmh E 5.0 mph8.0 kmh 29.88 in1011.9 mb 0.00 in0.0 mm 0.00 in0.0 mm 0.00 in0.0 mm
08:00 AM 63.6°F17.6°C 54.0°F12.2°C 71% 1.0 mph E1.6 kmh E 1.0 mph1.6 kmh 29.88 in1011.9 mb 0.00 in0.0 mm 0.00 in0.0 mm 0.00 in0.0 mm
07:40 AM 61.8°F16.6°C 51.1°F10.6°C 68% Calm Calm -- 29.88 in1011.9 mb 0.00 in0.0 mm 0.00 in0.0 mm 0.00 in0.0 mm
07:20 AM 60.8°F16.0°C 50.2°F10.1°C 68% Calm Calm -- 29.87 in1011.5 mb 0.00 in0.0 mm 0.00 in0.0 mm 0.00 in0.0 mm
07:00 AM 59.8°F15.4°C 50.0°F10.0°C 70% Calm Calm -- 29.87 in1011.5 mb 0.00 in0.0 mm 0.00 in0.0 mm 0.00 in0.0 mm
06:40 AM 59.8°F15.4°C 50.4°F10.2°C 71% Calm Calm 1.0 mph1.6 kmh 29.86 in1011.2 mb 0.00 in0.0 mm 0.00 in0.0 mm 0.00 in0.0 mm
06:20 AM 62.2°F16.8°C 50.3°F10.2°C 65% Calm Calm 1.0 mph1.6 kmh 29.86 in1011.2 mb 0.00 in0.0 mm 0.00 in0.0 mm 0.00 in0.0 mm
06:00 AM 63.4°F17.4°C 51.9°F11.1°C 66% Calm Calm -- 29.86 in1011.2 mb 0.00 in0.0 mm 0.00 in0.0 mm 0.00 in0.0 mm
05:40 AM 63.6°F17.6°C 52.9°F11.6°C 68% 1.0 mph ENE1.6 kmh ENE 3.0 mph4.8 kmh 29.85 in1010.8 mb 0.00 in0.0 mm 0.00 in0.0 mm 0.00 in0.0 mm
05:20 AM 63.6°F17.6°C 52.9°F11.6°C 68% 1.0 mph NE1.6 kmh NE 2.0 mph3.2 kmh 29.85 in1010.8 mb 0.00 in0.0 mm 0.00 in0.0 mm 0.00 in0.0 mm
05:00 AM 63.3°F17.4°C 51.4°F10.8°C 65% Calm Calm -- 29.85 in1010.8 mb 0.00 in0.0 mm 0.00 in0.0 mm 0.00 in0.0 mm
04:40 AM 64.2°F17.9°C 50.5°F10.3°C 61% Calm Calm -- 29.85 in1010.8 mb 0.00 in0.0 mm 0.00 in0.0 mm 0.00 in0.0 mm
04:20 AM 65.6°F18.7°C 50.4°F10.2°C 58% Calm Calm 3.0 mph4.8 kmh 29.85 in1010.8 mb 0.00 in0.0 mm 0.00 in0.0 mm 0.00 in0.0 mm
04:00 AM 65.7°F18.7°C 50.1°F10.1°C 57% 3.0 mph NE4.8 kmh NE 3.0 mph4.8 kmh 29.85 in1010.8 mb 0.00 in0.0 mm 0.00 in0.0 mm 0.00 in0.0 mm
03:40 AM 66.4°F19.1°C 50.7°F10.4°C 57% Calm Calm 1.0 mph1.6 kmh 29.85 in1010.8 mb 0.00 in0.0 mm 0.00 in0.0 mm 0.00 in0.0 mm
03:20 AM 66.6°F19.2°C 50.9°F10.5°C 57% Calm Calm 1.0 mph1.6 kmh 29.85 in1010.8 mb 0.00 in0.0 mm 0.00 in0.0 mm 0.00 in0.0 mm
03:00 AM 68.0°F20.0°C 51.3°F10.7°C 55% Calm Calm -- 29.86 in1011.2 mb 0.00 in0.0 mm 0.00 in0.0 mm 0.00 in0.0 mm
02:40 AM 69.2°F20.7°C 51.4°F10.8°C 53% 3.0 mph E4.8 kmh E 3.0 mph4.8 kmh 29.86 in1011.2 mb 0.00 in0.0 mm 0.00 in0.0 mm 0.00 in0.0 mm
02:20 AM 70.0°F21.1°C 51.1°F10.6°C 51% 2.0 mph NE3.2 kmh NE 3.0 mph4.8 kmh 29.86 in1011.2 mb 0.00 in0.0 mm 0.00 in0.0 mm 0.00 in0.0 mm
02:00 AM 70.7°F21.5°C 51.2°F10.7°C 50% Calm Calm 1.0 mph1.6 kmh 29.86 in1011.2 mb 0.00 in0.0 mm 0.00 in0.0 mm 0.00 in0.0 mm
01:40 AM 71.1°F21.7°C 50.4°F10.2°C 48% Calm Calm 1.0 mph1.6 kmh 29.86 in1011.2 mb 0.00 in0.0 mm 0.00 in0.0 mm 0.00 in0.0 mm
01:20 AM 72.0°F22.2°C 51.3°F10.7°C 48% Calm Calm 1.0 mph1.6 kmh 29.86 in1011.2 mb 0.00 in0.0 mm 0.00 in0.0 mm 0.00 in0.0 mm
01:00 AM 72.5°F22.5°C 50.0°F10.0°C 45% Calm Calm 1.0 mph1.6 kmh 29.86 in1011.2 mb 0.00 in0.0 mm 0.00 in0.0 mm 0.00 in0.0 mm
12:40 AM 71.9°F22.2°C 48.2°F9.0°C 43% 2.0 mph NE3.2 kmh NE 2.0 mph3.2 kmh 29.86 in1011.2 mb 0.00 in0.0 mm 0.00 in0.0 mm 0.00 in0.0 mm
12:20 AM 73.4°F23.0°C 47.0°F8.3°C 39% Calm Calm 1.0 mph1.6 kmh 29.86 in1011.2 mb 0.00 in0.0 mm 0.00 in0.0 mm 0.00 in0.0 mm
12:00 AM 74.9°F23.8°C 48.3°F9.1°C 39% Calm Calm 1.0 mph1.6 kmh 29.86 in1011.2 mb 0.00 in0.0 mm 0.00 in0.0 mm 0.00 in0.0 mm